Finlay — CFN5265 — position and weather

sailwx.info

Track history (hours):
 
Tides and Currents Weather Stations Pressure Air Temp Water Temp Dewpoint Dewpoint Depression Visibility Wind Speed Wind Dir Waves Ship Positions

Finlay

Last reported at 2017-Oct-22 18:23 UTC. Time now 2017-Oct-22 21:21 UTC.
Position N 49°18' W 123°02'.

Length 13 m; draft 2.2 m.

Type: Towing. MMSI: 316013688.

Date/timePositionNaut miles runAvg speedWind from/ knotsBaromVisibWave heightAir tempDewpointWater temp
2017-Oct-22 18:23N 49°18' W 123°02'2 5.6
2017-Oct-22 18:01N 49°17' W 123°05'0 0.5
2017-Oct-22 17:31N 49°17' W 123°04'2 3.7
2017-Oct-22 17:01N 49°18' W 123°02'0 0.0
2017-Oct-22 16:31N 49°18' W 123°02'0 0.0
2017-Oct-22 16:01N 49°18' W 123°02'0 0.0
2017-Oct-22 15:30N 49°18' W 123°02'0 0.0
2017-Oct-22 15:01N 49°18' W 123°02'0 0.0
2017-Oct-22 14:31N 49°18' W 123°02'0 0.0
2017-Oct-22 14:00N 49°18' W 123°02'0 0.0
2017-Oct-22 13:31N 49°18' W 123°02'0 0.0
2017-Oct-22 13:00N 49°18' W 123°02'0 0.0
2017-Oct-22 12:31N 49°18' W 123°02'0 0.0
2017-Oct-22 12:00N 49°18' W 123°02'0 0.0
2017-Oct-22 11:31N 49°18' W 123°02'0 0.0
2017-Oct-22 11:00N 49°18' W 123°02'0 0.0
2017-Oct-22 10:30N 49°18' W 123°02'0 0.0
2017-Oct-22 10:00N 49°18' W 123°02'0 0.0
2017-Oct-22 09:30N 49°18' W 123°02'0 0.0
2017-Oct-22 09:00N 49°18' W 123°02'0 0.0
2017-Oct-22 08:30N 49°18' W 123°02'0 0.0
2017-Oct-22 08:00N 49°18' W 123°02'0 0.0
2017-Oct-22 07:30N 49°18' W 123°02'0 0.0
2017-Oct-22 07:00N 49°18' W 123°02'0 0.0
2017-Oct-22 06:30N 49°18' W 123°02'0 0.0
2017-Oct-22 06:00N 49°18' W 123°02'2 3.7
2017-Oct-22 05:31N 49°17' W 123°05'0 0.0
2017-Oct-22 05:01N 49°17' W 123°05'0 0.5
2017-Oct-22 04:31N 49°17' W 123°04'2 3.2
2017-Oct-22 04:00N 49°18' W 123°02'0 0.0
2017-Oct-22 03:31N 49°18' W 123°02'0 0.0
2017-Oct-22 03:00N 49°18' W 123°02'2 3.3
2017-Oct-22 02:31N 49°17' W 123°04'2 3.5
2017-Oct-22 02:00N 49°18' W 123°02'2 4.0
2017-Oct-22 01:30N 49°18' W 122°58'0 0.4
2017-Oct-22 01:00N 49°18' W 122°58'3 5.5
2017-Oct-22 00:30N 49°18' W 122°54'1 1.6
2017-Oct-22 00:01N 49°18' W 122°53'0 0.1
2017-Oct-21 23:30N 49°18' W 122°53'0 0.0
2017-Oct-21 23:00N 49°18' W 122°53'3 6.4
2017-Oct-21 22:31N 49°18' W 122°58'3 5.3
2017-Oct-21 22:01N 49°18' W 123°02'0 0.0
2017-Oct-21 21:31N 49°18' W 123°02'0 0.0
2017-Oct-21 21:01N 49°18' W 123°02'0 0.0
2017-Oct-21 20:31N 49°18' W 123°02'0 0.0
2017-Oct-21 20:00N 49°18' W 123°02'0 0.0
2017-Oct-21 19:31N 49°18' W 123°02'0 0.0
2017-Oct-21 19:01N 49°18' W 123°02'0 0.0
2017-Oct-21 18:30N 49°18' W 123°02'0 0.0
2017-Oct-21 18:01N 49°18' W 123°02'0 0.0
2017-Oct-21 17:31N 49°18' W 123°02'0 0.0
2017-Oct-21 17:00N 49°18' W 123°02'0 0.0
2017-Oct-21 16:30N 49°18' W 123°02'1 2.5
2017-Oct-21 16:01N 49°18' W 123°04'0 0.9
2017-Oct-21 15:31N 49°17' W 123°04'2 4.5
2017-Oct-21 15:01N 49°18' W 123°07'5 5.2
2017-Oct-21 14:01N 49°18' W 122°59'4 8.6
2017-Oct-21 13:30N 49°18' W 122°53'0 0.1
2017-Oct-21 13:01N 49°18' W 122°53'2 4.3
2017-Oct-21 12:30N 49°18' W 122°56'4 7.3
2017-Oct-21 12:00N 49°18' W 123°02'0 0.0
2017-Oct-21 06:21N 49°18' W 123°02'1 3.1
2017-Oct-21 06:00N 49°18' W 123°03'3 5.6
2017-Oct-21 05:30N 49°19' W 123°08'0 0.2
2017-Oct-21 05:00N 49°19' W 123°07'3 6.9
2017-Oct-21 04:30N 49°18' W 123°02'0 0.6
2017-Oct-21 04:00N 49°18' W 123°02'0 0.0
2017-Oct-21 03:30N 49°18' W 123°02'0 0.0
2017-Oct-21 03:00N 49°18' W 123°02'0 0.0
2017-Oct-21 02:30N 49°18' W 123°02'0 0.0
2017-Oct-21 02:00N 49°18' W 123°02'0 0.0
2017-Oct-21 01:30N 49°18' W 123°02'0 0.0
2017-Oct-21 01:00N 49°18' W 123°02'0 0.0
2017-Oct-21 00:30N 49°18' W 123°02'0 0.0
2017-Oct-21 00:00N 49°18' W 123°02'1 2.9
2017-Oct-20 23:30N 49°18' W 122°60'1 1.3
2017-Oct-20 23:00N 49°18' W 122°59'2 3.7
2017-Oct-20 22:30N 49°18' W 123°02'2 4.4
2017-Oct-20 22:00N 49°17' W 123°05'2 4.2
2017-Oct-20 21:30N 49°18' W 123°02'0 0.0
2017-Oct-20 21:00N 49°18' W 123°02'0 0.0
2017-Oct-20 20:30N 49°18' W 123°02'0 0.7
2017-Oct-20 20:00N 49°18' W 123°02'0 0.0
2017-Oct-20 19:30N 49°18' W 123°02'0 0.1
2017-Oct-20 19:00N 49°18' W 123°02'3 6.8
2017-Oct-20 18:30N 49°18' W 122°57'2 5.0
2017-Oct-20 18:00N 49°18' W 122°53'3 5.5
2017-Oct-20 17:30N 49°18' W 122°57'3 6.0
2017-Oct-20 17:00N 49°18' W 123°02'0 0.0
2017-Oct-20 16:30N 49°18' W 123°02'0 0.0
2017-Oct-20 16:00N 49°18' W 123°02'0 0.0
2017-Oct-20 15:30N 49°18' W 123°02'0 0.0
2017-Oct-20 15:00N 49°18' W 123°02'0 0.0
2017-Oct-20 14:00N 49°18' W 123°02'0 0.0
2017-Oct-20 13:30N 49°18' W 123°02'0 0.0
2017-Oct-20 13:00N 49°18' W 123°02'0 0.0
2017-Oct-20 12:30N 49°18' W 123°02'0 0.0
2017-Oct-20 12:00N 49°18' W 123°02'0 0.0
2017-Oct-20 11:30N 49°18' W 123°02'1 1.8
2017-Oct-20 11:00N 49°18' W 123°00'5 9.1
2017-Oct-20 10:30N 49°18' W 122°53'0 0.8
2017-Oct-20 10:00N 49°18' W 122°53'0 0.5
2017-Oct-20 09:30N 49°18' W 122°53'2 3.3
2017-Oct-20 09:00N 49°18' W 122°56'2 4.5
2017-Oct-20 08:30N 49°18' W 122°59'3 5.3
2017-Oct-20 08:00N 49°18' W 123°03'0 0.6
2017-Oct-20 07:30N 49°18' W 123°03'1 1.4
2017-Oct-20 07:00N 49°18' W 123°02'0 0.0
2017-Oct-20 06:30N 49°18' W 123°02'0 0.0
2017-Oct-20 06:00N 49°18' W 123°02'0 0.0
2017-Oct-20 05:30N 49°18' W 123°02'0 0.0
2017-Oct-20 05:00N 49°18' W 123°02'0 0.0
2017-Oct-20 04:29N 49°18' W 123°02'0 0.0
2017-Oct-20 04:00N 49°18' W 123°02'0 0.0
2017-Oct-20 03:30N 49°18' W 123°02'0 0.0
2017-Oct-20 03:00N 49°18' W 123°02'0 0.0
2017-Oct-20 02:30N 49°18' W 123°02'0 0.0
2017-Oct-20 02:00N 49°18' W 123°02'0 0.0
2017-Oct-20 01:30N 49°18' W 123°02'0 0.0
2017-Oct-20 01:00N 49°18' W 123°02'0 0.0
2017-Oct-20 00:30N 49°18' W 123°02'0 0.0
2017-Oct-20 00:00N 49°18' W 123°02'0 0.0
2017-Oct-19 23:30N 49°18' W 123°02'0 0.0
2017-Oct-19 23:00N 49°18' W 123°02'0 0.0
2017-Oct-19 22:30N 49°18' W 123°02'0 0.0
2017-Oct-19 22:00N 49°18' W 123°02'0 0.0
2017-Oct-19 21:30N 49°18' W 123°02'0 0.0
2017-Oct-19 21:00N 49°18' W 123°02'0 0.0
2017-Oct-19 20:30N 49°18' W 123°02'0 0.0
2017-Oct-19 20:00N 49°18' W 123°02'0 0.0
2017-Oct-19 19:30N 49°18' W 123°02'0 0.0
2017-Oct-19 19:00N 49°18' W 123°02'0 0.0
2017-Oct-19 18:30N 49°18' W 123°02'0 0.0
2017-Oct-19 18:00N 49°18' W 123°02'0 0.0
2017-Oct-19 17:30N 49°18' W 123°02'0 0.0
2017-Oct-19 17:00N 49°18' W 123°02'0 0.0
2017-Oct-19 16:30N 49°18' W 123°02'0 0.0
2017-Oct-19 16:00N 49°18' W 123°02'0 0.0
2017-Oct-19 15:30N 49°18' W 123°02'0 0.0
2017-Oct-19 15:00N 49°18' W 123°02'0 0.0
2017-Oct-19 14:30N 49°18' W 123°02'0 0.0
2017-Oct-19 14:00N 49°18' W 123°02'0 0.0
2017-Oct-19 13:30N 49°18' W 123°02'0 0.0
2017-Oct-19 13:00N 49°18' W 123°02'0 0.0
2017-Oct-19 12:30N 49°18' W 123°02'0 0.0
2017-Oct-19 12:00N 49°18' W 123°02'0 0.0
2017-Oct-19 11:30N 49°18' W 123°02'0 0.0
2017-Oct-19 11:00N 49°18' W 123°02'0 0.0
2017-Oct-19 10:30N 49°18' W 123°02'0 0.0
2017-Oct-19 10:00N 49°18' W 123°02'0 0.0
2017-Oct-19 09:30N 49°18' W 123°02'0 0.0
2017-Oct-19 09:00N 49°18' W 123°02'0 0.0
2017-Oct-19 08:30N 49°18' W 123°02'0 0.0
2017-Oct-19 08:00N 49°18' W 123°02'0 0.0
2017-Oct-19 07:30N 49°18' W 123°02'0 0.0
2017-Oct-19 06:58N 49°18' W 123°02'0 0.0
2017-Oct-19 06:30N 49°18' W 123°02'0 0.0
2017-Oct-19 06:00N 49°18' W 123°02'0 0.0
2017-Oct-19 05:30N 49°18' W 123°02'0 0.0
2017-Oct-19 05:00N 49°18' W 123°02'0 0.0
2017-Oct-19 04:30N 49°18' W 123°02'0 0.0
2017-Oct-19 04:00N 49°18' W 123°02'0 0.0
2017-Oct-19 03:30N 49°18' W 123°02'0 0.0
2017-Oct-19 03:00N 49°18' W 123°02'0 0.0
2017-Oct-19 02:30N 49°18' W 123°02'0 0.0
2017-Oct-19 02:00N 49°18' W 123°02'0 0.0
2017-Oct-19 01:30N 49°18' W 123°02'0 0.0
2017-Oct-19 01:00N 49°18' W 123°02'0 0.0
2017-Oct-19 00:30N 49°18' W 123°02'0 0.0
2017-Oct-19 00:00N 49°18' W 123°02'0 0.0
2017-Oct-18 23:30N 49°18' W 123°02'0 0.0
2017-Oct-18 23:00N 49°18' W 123°02'0 0.0
2017-Oct-18 22:30N 49°18' W 123°02'0 0.0
2017-Oct-18 22:00N 49°18' W 123°02'0 0.0
2017-Oct-18 21:30N 49°18' W 123°02'0 0.0
2017-Oct-18 21:00N 49°18' W 123°02'0 0.0
2017-Oct-18 20:30N 49°18' W 123°02'0 0.0
2017-Oct-18 20:00N 49°18' W 123°02'0 0.0
2017-Oct-18 19:30N 49°18' W 123°02'0 0.0
2017-Oct-18 19:00N 49°18' W 123°02'0 0.0
2017-Oct-18 18:30N 49°18' W 123°02'0 0.0
2017-Oct-18 18:00N 49°18' W 123°02'0 0.0
2017-Oct-18 17:30N 49°18' W 123°02'0 0.0
2017-Oct-18 17:00N 49°18' W 123°02'0 0.0
2017-Oct-18 16:30N 49°18' W 123°02'0 0.0
2017-Oct-18 16:00N 49°18' W 123°02'0 0.0
2017-Oct-18 15:30N 49°18' W 123°02'0 0.0
2017-Oct-18 15:00N 49°18' W 123°02'0 0.0
2017-Oct-18 14:00N 49°18' W 123°02'0 0.0
2017-Oct-18 13:30N 49°18' W 123°02'0 0.0
2017-Oct-18 13:00N 49°18' W 123°02'0 0.0
2017-Oct-18 12:30N 49°18' W 123°02'0 0.0
2017-Oct-18 12:00N 49°18' W 123°02'0 0.0
2017-Oct-18 11:30N 49°18' W 123°02'0 0.0
2017-Oct-18 11:00N 49°18' W 123°02'0 0.0
2017-Oct-18 10:30N 49°18' W 123°02'0 0.0
2017-Oct-18 10:00N 49°18' W 123°02'0 0.0
2017-Oct-18 09:30N 49°18' W 123°02'0 0.0
2017-Oct-18 09:00N 49°18' W 123°02'0 0.0
2017-Oct-18 08:30N 49°18' W 123°02'0 0.0
2017-Oct-18 08:00N 49°18' W 123°02'0 0.0
2017-Oct-18 07:30N 49°18' W 123°02'0 0.0
2017-Oct-18 07:00N 49°18' W 123°02'0 0.0
2017-Oct-18 06:30N 49°18' W 123°02'0 0.0
2017-Oct-18 06:00N 49°18' W 123°02'0 0.0
2017-Oct-18 05:30N 49°18' W 123°02'0 0.0
2017-Oct-18 05:00N 49°18' W 123°02'0 0.0
2017-Oct-18 04:30N 49°18' W 123°02'0 0.0
2017-Oct-18 04:00N 49°18' W 123°02'0 0.0
2017-Oct-18 03:30N 49°18' W 123°02'0 0.0
2017-Oct-18 03:00N 49°18' W 123°02'0 0.0
2017-Oct-18 02:30N 49°18' W 123°02'0 0.0
2017-Oct-18 02:00N 49°18' W 123°02'0 0.0
2017-Oct-18 01:30N 49°18' W 123°02'0 0.0
2017-Oct-18 01:00N 49°18' W 123°02'0 0.0
2017-Oct-18 00:30N 49°18' W 123°02'0 0.0
2017-Oct-18 00:00N 49°18' W 123°02'0 0.0
2017-Oct-17 23:30N 49°18' W 123°02'0 0.0
2017-Oct-17 23:00N 49°18' W 123°02'0 0.0
2017-Oct-17 22:30N 49°18' W 123°02'0 0.0
2017-Oct-17 22:00N 49°18' W 123°02'0 0.0
2017-Oct-17 21:30N 49°18' W 123°02'0 0.0
2017-Oct-17 21:00N 49°18' W 123°02'0 0.0
2017-Oct-17 20:30N 49°18' W 123°02'0 0.0
2017-Oct-17 20:00N 49°18' W 123°02'0 0.0
2017-Oct-17 19:30N 49°18' W 123°02'0 0.0
2017-Oct-17 19:00N 49°18' W 123°02'0 0.0
2017-Oct-17 18:30N 49°18' W 123°02'0 0.0
2017-Oct-17 18:00N 49°18' W 123°02'0 0.0
2017-Oct-17 17:30N 49°18' W 123°02'0 0.0
2017-Oct-17 17:00N 49°18' W 123°02'0 0.0
2017-Oct-17 16:30N 49°18' W 123°02'0 0.0
2017-Oct-17 16:00N 49°18' W 123°02'0 0.0
2017-Oct-17 15:30N 49°18' W 123°02'0 0.0
2017-Oct-17 15:00N 49°18' W 123°02'0 0.0
2017-Oct-17 14:30N 49°18' W 123°02'0 0.0
2017-Oct-17 14:00N 49°18' W 123°02'0 0.0
2017-Oct-17 13:30N 49°18' W 123°02'0 0.0
2017-Oct-17 13:00N 49°18' W 123°02'1 1.0
2017-Oct-17 12:30N 49°18' W 123°01'1 1.2
2017-Oct-17 12:00N 49°18' W 123°02'0 0.0
2017-Oct-16 01:30N 49°18' W 123°02'2 4.4
2017-Oct-16 01:00N 49°17' W 123°05'1 2.5
2017-Oct-16 00:30N 49°18' W 123°06'2 3.0
2017-Oct-16 00:00N 49°17' W 123°04'2 3.1
2017-Oct-15 23:30N 49°18' W 123°06'2 4.4
2017-Oct-15 23:00N 49°18' W 123°03'2 4.9
2017-Oct-15 22:30N 49°18' W 122°59'3 6.1
2017-Oct-15 22:00N 49°18' W 122°55'1 2.3
2017-Oct-15 21:30N 49°18' W 122°53'0 0.2
2017-Oct-15 21:00N 49°18' W 122°53'0 0.0
2017-Oct-15 20:30N 49°18' W 122°53'0 0.0
2017-Oct-15 20:00N 49°18' W 122°53'0 0.0
2017-Oct-15 19:30N 49°18' W 122°53'0 0.0
2017-Oct-15 19:00N 49°18' W 122°53'0 0.0
2017-Oct-15 18:30N 49°18' W 122°53'0 0.0
2017-Oct-15 18:00N 49°18' W 122°53'0 0.0
2017-Oct-15 17:30N 49°18' W 122°53'0 0.0
2017-Oct-15 17:00N 49°18' W 122°53'0 0.0
2017-Oct-15 16:30N 49°18' W 122°53'0 0.2
2017-Oct-15 16:00N 49°18' W 122°53'1 1.4
2017-Oct-15 15:30N 49°18' W 122°54'2 3.9
2017-Oct-15 15:00N 49°18' W 122°57'5 4.8
2017-Oct-15 14:00N 49°17' W 123°04'0 0.3
2017-Oct-15 13:30N 49°17' W 123°04'2 4.7
2017-Oct-15 13:00N 49°18' W 123°01'3 6.5
2017-Oct-15 12:30N 49°18' W 122°56'2 3.8
2017-Oct-15 12:00N 49°18' W 122°53'3 5.2
2017-Oct-15 11:30N 49°18' W 122°57'3 6.2
2017-Oct-15 11:00N 49°18' W 123°02'0 0.0
2017-Oct-15 10:30N 49°18' W 123°02'0 0.0
2017-Oct-15 10:00N 49°18' W 123°02'0 0.0
2017-Oct-15 09:30N 49°18' W 123°02'0 0.0
2017-Oct-15 09:00N 49°18' W 123°02'0 0.0
2017-Oct-15 08:30N 49°18' W 123°02'0 0.0
2017-Oct-15 07:59N 49°18' W 123°02'0 0.0
2017-Oct-15 07:30N 49°18' W 123°02'0 0.0
2017-Oct-15 07:00N 49°18' W 123°02'0 0.0
2017-Oct-15 06:30N 49°18' W 123°02'0 0.0
2017-Oct-15 06:00N 49°18' W 123°02'0 0.0
2017-Oct-15 05:30N 49°18' W 123°02'0 0.0
2017-Oct-15 05:00N 49°18' W 123°02'0 0.0
2017-Oct-15 04:30N 49°18' W 123°02'0 0.0
2017-Oct-15 04:00N 49°18' W 123°02'0 0.0
2017-Oct-15 03:30N 49°18' W 123°02'0 0.0
2017-Oct-15 03:00N 49°18' W 123°02'0 0.0
2017-Oct-15 02:30N 49°18' W 123°02'4 8.2
2017-Oct-15 02:01N 49°18' W 122°56'2 3.6
2017-Oct-15 01:30N 49°18' W 122°53'1 2.1
2017-Oct-15 01:01N 49°18' W 122°54'3 5.5
2017-Oct-15 00:30N 49°18' W 122°59'0 0.5
2017-Oct-15 00:01N 49°18' W 122°59'1 2.0
2017-Oct-14 23:31N 49°18' W 123°00'1 2.2
2017-Oct-14 23:00N 49°18' W 123°02'0 0.8
2017-Oct-14 22:31N 49°18' W 123°02'0 0.0
2017-Oct-14 22:01N 49°18' W 123°02'0 0.0
2017-Oct-14 21:31N 49°18' W 123°02'0 0.0
2017-Oct-14 21:01N 49°18' W 123°02'0 0.0
2017-Oct-14 20:31N 49°18' W 123°02'0 0.0
2017-Oct-14 20:01N 49°18' W 123°02'0 0.0
2017-Oct-14 19:30N 49°18' W 123°02'0 0.0
2017-Oct-14 19:01N 49°18' W 123°02'0 0.0
2017-Oct-14 18:31N 49°18' W 123°02'0 0.0
2017-Oct-14 18:01N 49°18' W 123°02'0 0.0
2017-Oct-14 17:30N 49°18' W 123°02'0 0.0
2017-Oct-14 17:01N 49°18' W 123°02'0 0.0
2017-Oct-14 16:31N 49°18' W 123°02'0 0.0
2017-Oct-14 16:00N 49°18' W 123°02'0 0.0
2017-Oct-14 15:31N 49°18' W 123°02'0 0.0
2017-Oct-14 15:01N 49°18' W 123°02'0 0.8
2017-Oct-14 14:31N 49°18' W 123°02'0 0.8
2017-Oct-14 14:00N 49°18' W 123°02'0 0.0
2017-Oct-14 03:27N 49°18' W 123°02'0 0.2
2017-Oct-14 03:01N 49°18' W 123°02'1 1.4
2017-Oct-14 02:31N 49°18' W 123°03'1 1.4
2017-Oct-14 02:01N 49°18' W 123°02'0 0.0
2017-Oct-14 01:26N 49°18' W 123°02'0 0.0
2017-Oct-14 00:59N 49°18' W 123°02'0 0.0
2017-Oct-14 00:18N 49°18' W 123°02'0 0.0
2017-Oct-14 00:00N 49°18' W 123°02'0 0.0
2017-Oct-13 23:28N 49°18' W 123°02'0 0.0
2017-Oct-13 23:01N 49°18' W 123°02'0 0.0
2017-Oct-13 22:30N 49°18' W 123°02'0 0.0
2017-Oct-13 22:01N 49°18' W 123°02'0 0.0
2017-Oct-13 21:31N 49°18' W 123°02'0 0.0
2017-Oct-13 21:00N 49°18' W 123°02'0 0.0
2017-Oct-13 20:30N 49°18' W 123°02'0 0.0
2017-Oct-13 20:00N 49°18' W 123°02'0 0.0
2017-Oct-13 19:31N 49°18' W 123°02'0 0.0
2017-Oct-13 19:00N 49°18' W 123°02'0 0.0
2017-Oct-13 18:31N 49°18' W 123°02'0 0.0
2017-Oct-13 18:01N 49°18' W 123°02'0 0.0
2017-Oct-13 17:31N 49°18' W 123°02'0 0.0
2017-Oct-13 17:01N 49°18' W 123°02'0 0.0
2017-Oct-13 16:31N 49°18' W 123°02'0 0.0
2017-Oct-13 16:01N 49°18' W 123°02'1 1.5
2017-Oct-13 15:31N 49°18' W 123°01'3 5.5
2017-Oct-13 15:00N 49°18' W 122°56'2 4.6
2017-Oct-13 14:30N 49°18' W 122°53'0 0.2
2017-Oct-13 14:00N 49°18' W 122°53'0 0.0
2017-Oct-13 13:30N 49°18' W 122°53'0 0.0
2017-Oct-13 13:00N 49°18' W 122°53'0 0.0
2017-Oct-13 12:31N 49°18' W 122°53'0 0.0
2017-Oct-13 12:00N 49°18' W 122°53'0 0.1
2017-Oct-13 11:31N 49°18' W 122°53'0 0.1
2017-Oct-13 11:01N 49°18' W 122°53'0 0.0
2017-Oct-13 10:31N 49°18' W 122°53'0 0.0
2017-Oct-13 10:00N 49°18' W 122°53'0 0.0
2017-Oct-13 09:31N 49°18' W 122°53'0 0.0
2017-Oct-13 09:01N 49°18' W 122°53'0 0.0
2017-Oct-13 08:31N 49°18' W 122°53'0 0.1
2017-Oct-13 08:01N 49°18' W 122°53'0 0.1
2017-Oct-13 07:31N 49°18' W 122°53'0 0.2
2017-Oct-13 07:01N 49°18' W 122°53'0 0.0
2017-Oct-13 06:31N 49°18' W 122°53'2 4.2
2017-Oct-13 06:00N 49°18' W 122°56'4 7.4
2017-Oct-13 05:31N 49°18' W 123°02'0 0.1
2017-Oct-13 05:00N 49°18' W 123°02'0 0.0
2017-Oct-13 04:30N 49°18' W 123°02'0 0.0
2017-Oct-13 04:00N 49°18' W 123°02'0 0.0
2017-Oct-13 03:31N 49°18' W 123°02'0 0.0
2017-Oct-13 03:01N 49°18' W 123°02'0 0.0
2017-Oct-13 02:30N 49°18' W 123°02'0 0.0
2017-Oct-13 02:00N 49°18' W 123°02'0 0.0
2017-Oct-13 01:30N 49°18' W 123°02'0 0.0
2017-Oct-13 01:00N 49°18' W 123°02'0 0.0
2017-Oct-13 00:30N 49°18' W 123°02'0 0.1
2017-Oct-13 00:00N 49°18' W 123°02'0 0.1
2017-Oct-12 23:30N 49°18' W 123°02'0 0.0
2017-Oct-12 23:01N 49°18' W 123°02'0 0.0
2017-Oct-12 22:30N 49°18' W 123°02'0 0.0
2017-Oct-12 22:00N 49°18' W 123°02'0 0.0
2017-Oct-12 21:30N 49°18' W 123°02'0 0.0
2017-Oct-12 21:00N 49°18' W 123°02'0 0.0
2017-Oct-12 20:30N 49°18' W 123°02'0 0.0
2017-Oct-12 20:01N 49°18' W 123°02'0 0.0
2017-Oct-12 19:31N 49°18' W 123°02'0 0.0
2017-Oct-12 19:00N 49°18' W 123°02'0 0.0
2017-Oct-12 18:31N 49°18' W 123°02'  
Track history (hours):
 
Tides and Currents Weather Stations Pressure Air Temp Water Temp Dewpoint Dewpoint Depression Visibility Wind Speed Wind Dir Waves Ship Positions

Finlay

Last reported at 2017-Oct-22 18:23 UTC. Time now 2017-Oct-22 21:21 UTC.
Position N 49°18' W 123°02'.

Length 13 m; draft 2.2 m.

Type: Towing. MMSI: 316013688.

Date/timePositionNaut miles runAvg speedWind from/ knotsBaromVisibWave heightAir tempDewpointWater temp
2017-Oct-22 18:23N 49°18' W 123°02'2 5.6
2017-Oct-22 18:01N 49°17' W 123°05'0 0.5
2017-Oct-22 17:31N 49°17' W 123°04'2 3.7
2017-Oct-22 17:01N 49°18' W 123°02'0 0.0
2017-Oct-22 16:31N 49°18' W 123°02'0 0.0
2017-Oct-22 16:01N 49°18' W 123°02'0 0.0
2017-Oct-22 15:30N 49°18' W 123°02'0 0.0
2017-Oct-22 15:01N 49°18' W 123°02'0 0.0
2017-Oct-22 14:31N 49°18' W 123°02'0 0.0
2017-Oct-22 14:00N 49°18' W 123°02'0 0.0
2017-Oct-22 13:31N 49°18' W 123°02'0 0.0
2017-Oct-22 13:00N 49°18' W 123°02'0 0.0
2017-Oct-22 12:31N 49°18' W 123°02'0 0.0
2017-Oct-22 12:00N 49°18' W 123°02'0 0.0
2017-Oct-22 11:31N 49°18' W 123°02'0 0.0
2017-Oct-22 11:00N 49°18' W 123°02'0 0.0
2017-Oct-22 10:30N 49°18' W 123°02'0 0.0
2017-Oct-22 10:00N 49°18' W 123°02'0 0.0
2017-Oct-22 09:30N 49°18' W 123°02'0 0.0
2017-Oct-22 09:00N 49°18' W 123°02'0 0.0
2017-Oct-22 08:30N 49°18' W 123°02'0 0.0
2017-Oct-22 08:00N 49°18' W 123°02'0 0.0
2017-Oct-22 07:30N 49°18' W 123°02'0 0.0
2017-Oct-22 07:00N 49°18' W 123°02'0 0.0
2017-Oct-22 06:30N 49°18' W 123°02'0 0.0
2017-Oct-22 06:00N 49°18' W 123°02'2 3.7
2017-Oct-22 05:31N 49°17' W 123°05'0 0.0
2017-Oct-22 05:01N 49°17' W 123°05'0 0.5
2017-Oct-22 04:31N 49°17' W 123°04'2 3.2
2017-Oct-22 04:00N 49°18' W 123°02'0 0.0
2017-Oct-22 03:31N 49°18' W 123°02'0 0.0
2017-Oct-22 03:00N 49°18' W 123°02'2 3.3
2017-Oct-22 02:31N 49°17' W 123°04'2 3.5
2017-Oct-22 02:00N 49°18' W 123°02'2 4.0
2017-Oct-22 01:30N 49°18' W 122°58'0 0.4
2017-Oct-22 01:00N 49°18' W 122°58'3 5.5
2017-Oct-22 00:30N 49°18' W 122°54'1 1.6
2017-Oct-22 00:01N 49°18' W 122°53'0 0.1
2017-Oct-21 23:30N 49°18' W 122°53'0 0.0
2017-Oct-21 23:00N 49°18' W 122°53'3 6.4
2017-Oct-21 22:31N 49°18' W 122°58'3 5.3
2017-Oct-21 22:01N 49°18' W 123°02'0 0.0
2017-Oct-21 21:31N 49°18' W 123°02'0 0.0
2017-Oct-21 21:01N 49°18' W 123°02'0 0.0
2017-Oct-21 20:31N 49°18' W 123°02'0 0.0
2017-Oct-21 20:00N 49°18' W 123°02'0 0.0
2017-Oct-21 19:31N 49°18' W 123°02'0 0.0
2017-Oct-21 19:01N 49°18' W 123°02'0 0.0
2017-Oct-21 18:30N 49°18' W 123°02'0 0.0
2017-Oct-21 18:01N 49°18' W 123°02'0 0.0
2017-Oct-21 17:31N 49°18' W 123°02'0 0.0
2017-Oct-21 17:00N 49°18' W 123°02'0 0.0
2017-Oct-21 16:30N 49°18' W 123°02'1 2.5
2017-Oct-21 16:01N 49°18' W 123°04'0 0.9
2017-Oct-21 15:31N 49°17' W 123°04'2 4.5
2017-Oct-21 15:01N 49°18' W 123°07'5 5.2
2017-Oct-21 14:01N 49°18' W 122°59'4 8.6
2017-Oct-21 13:30N 49°18' W 122°53'0 0.1
2017-Oct-21 13:01N 49°18' W 122°53'2 4.3
2017-Oct-21 12:30N 49°18' W 122°56'4 7.3
2017-Oct-21 12:00N 49°18' W 123°02'0 0.0
2017-Oct-21 06:21N 49°18' W 123°02'1 3.1
2017-Oct-21 06:00N 49°18' W 123°03'3 5.6
2017-Oct-21 05:30N 49°19' W 123°08'0 0.2
2017-Oct-21 05:00N 49°19' W 123°07'3 6.9
2017-Oct-21 04:30N 49°18' W 123°02'0 0.6
2017-Oct-21 04:00N 49°18' W 123°02'0 0.0
2017-Oct-21 03:30N 49°18' W 123°02'0 0.0
2017-Oct-21 03:00N 49°18' W 123°02'0 0.0
2017-Oct-21 02:30N 49°18' W 123°02'0 0.0
2017-Oct-21 02:00N 49°18' W 123°02'0 0.0
2017-Oct-21 01:30N 49°18' W 123°02'0 0.0
2017-Oct-21 01:00N 49°18' W 123°02'0 0.0
2017-Oct-21 00:30N 49°18' W 123°02'0 0.0
2017-Oct-21 00:00N 49°18' W 123°02'1 2.9
2017-Oct-20 23:30N 49°18' W 122°60'1 1.3
2017-Oct-20 23:00N 49°18' W 122°59'2 3.7
2017-Oct-20 22:30N 49°18' W 123°02'2 4.4
2017-Oct-20 22:00N 49°17' W 123°05'2 4.2
2017-Oct-20 21:30N 49°18' W 123°02'0 0.0
2017-Oct-20 21:00N 49°18' W 123°02'0 0.0
2017-Oct-20 20:30N 49°18' W 123°02'0 0.7
2017-Oct-20 20:00N 49°18' W 123°02'0 0.0
2017-Oct-20 19:30N 49°18' W 123°02'0 0.1
2017-Oct-20 19:00N 49°18' W 123°02'3 6.8
2017-Oct-20 18:30N 49°18' W 122°57'2 5.0
2017-Oct-20 18:00N 49°18' W 122°53'3 5.5
2017-Oct-20 17:30N 49°18' W 122°57'3 6.0
2017-Oct-20 17:00N 49°18' W 123°02'0 0.0
2017-Oct-20 16:30N 49°18' W 123°02'0 0.0
2017-Oct-20 16:00N 49°18' W 123°02'0 0.0
2017-Oct-20 15:30N 49°18' W 123°02'0 0.0
2017-Oct-20 15:00N 49°18' W 123°02'0 0.0
2017-Oct-20 14:00N 49°18' W 123°02'0 0.0
2017-Oct-20 13:30N 49°18' W 123°02'0 0.0
2017-Oct-20 13:00N 49°18' W 123°02'0 0.0
2017-Oct-20 12:30N 49°18' W 123°02'0 0.0
2017-Oct-20 12:00N 49°18' W 123°02'0 0.0
2017-Oct-20 11:30N 49°18' W 123°02'1 1.8
2017-Oct-20 11:00N 49°18' W 123°00'5 9.1
2017-Oct-20 10:30N 49°18' W 122°53'0 0.8
2017-Oct-20 10:00N 49°18' W 122°53'0 0.5
2017-Oct-20 09:30N 49°18' W 122°53'2 3.3
2017-Oct-20 09:00N 49°18' W 122°56'2 4.5
2017-Oct-20 08:30N 49°18' W 122°59'3 5.3
2017-Oct-20 08:00N 49°18' W 123°03'0 0.6
2017-Oct-20 07:30N 49°18' W 123°03'1 1.4
2017-Oct-20 07:00N 49°18' W 123°02'0 0.0
2017-Oct-20 06:30N 49°18' W 123°02'0 0.0
2017-Oct-20 06:00N 49°18' W 123°02'0 0.0
2017-Oct-20 05:30N 49°18' W 123°02'0 0.0
2017-Oct-20 05:00N 49°18' W 123°02'0 0.0
2017-Oct-20 04:29N 49°18' W 123°02'0 0.0
2017-Oct-20 04:00N 49°18' W 123°02'0 0.0
2017-Oct-20 03:30N 49°18' W 123°02'0 0.0
2017-Oct-20 03:00N 49°18' W 123°02'0 0.0
2017-Oct-20 02:30N 49°18' W 123°02'0 0.0
2017-Oct-20 02:00N 49°18' W 123°02'0 0.0
2017-Oct-20 01:30N 49°18' W 123°02'0 0.0
2017-Oct-20 01:00N 49°18' W 123°02'0 0.0
2017-Oct-20 00:30N 49°18' W 123°02'0 0.0
2017-Oct-20 00:00N 49°18' W 123°02'0 0.0
2017-Oct-19 23:30N 49°18' W 123°02'0 0.0
2017-Oct-19 23:00N 49°18' W 123°02'0 0.0
2017-Oct-19 22:30N 49°18' W 123°02'0 0.0
2017-Oct-19 22:00N 49°18' W 123°02'0 0.0
2017-Oct-19 21:30N 49°18' W 123°02'0 0.0
2017-Oct-19 21:00N 49°18' W 123°02'0 0.0
2017-Oct-19 20:30N 49°18' W 123°02'0 0.0
2017-Oct-19 20:00N 49°18' W 123°02'0 0.0
2017-Oct-19 19:30N 49°18' W 123°02'0 0.0
2017-Oct-19 19:00N 49°18' W 123°02'0 0.0
2017-Oct-19 18:30N 49°18' W 123°02'0 0.0
2017-Oct-19 18:00N 49°18' W 123°02'0 0.0
2017-Oct-19 17:30N 49°18' W 123°02'0 0.0
2017-Oct-19 17:00N 49°18' W 123°02'0 0.0
2017-Oct-19 16:30N 49°18' W 123°02'0 0.0
2017-Oct-19 16:00N 49°18' W 123°02'0 0.0
2017-Oct-19 15:30N 49°18' W 123°02'0 0.0
2017-Oct-19 15:00N 49°18' W 123°02'0 0.0
2017-Oct-19 14:30N 49°18' W 123°02'0 0.0
2017-Oct-19 14:00N 49°18' W 123°02'0 0.0
2017-Oct-19 13:30N 49°18' W 123°02'0 0.0
2017-Oct-19 13:00N 49°18' W 123°02'0 0.0
2017-Oct-19 12:30N 49°18' W 123°02'0 0.0
2017-Oct-19 12:00N 49°18' W 123°02'0 0.0
2017-Oct-19 11:30N 49°18' W 123°02'0 0.0
2017-Oct-19 11:00N 49°18' W 123°02'0 0.0
2017-Oct-19 10:30N 49°18' W 123°02'0 0.0
2017-Oct-19 10:00N 49°18' W 123°02'0 0.0
2017-Oct-19 09:30N 49°18' W 123°02'0 0.0
2017-Oct-19 09:00N 49°18' W 123°02'0 0.0
2017-Oct-19 08:30N 49°18' W 123°02'0 0.0
2017-Oct-19 08:00N 49°18' W 123°02'0 0.0
2017-Oct-19 07:30N 49°18' W 123°02'0 0.0
2017-Oct-19 06:58N 49°18' W 123°02'0 0.0
2017-Oct-19 06:30N 49°18' W 123°02'0 0.0
2017-Oct-19 06:00N 49°18' W 123°02'0 0.0
2017-Oct-19 05:30N 49°18' W 123°02'0 0.0
2017-Oct-19 05:00N 49°18' W 123°02'0 0.0
2017-Oct-19 04:30N 49°18' W 123°02'0 0.0
2017-Oct-19 04:00N 49°18' W 123°02'0 0.0
2017-Oct-19 03:30N 49°18' W 123°02'0 0.0
2017-Oct-19 03:00N 49°18' W 123°02'0 0.0
2017-Oct-19 02:30N 49°18' W 123°02'0 0.0
2017-Oct-19 02:00N 49°18' W 123°02'0 0.0
2017-Oct-19 01:30N 49°18' W 123°02'0 0.0
2017-Oct-19 01:00N 49°18' W 123°02'0 0.0
2017-Oct-19 00:30N 49°18' W 123°02'0 0.0
2017-Oct-19 00:00N 49°18' W 123°02'0 0.0
2017-Oct-18 23:30N 49°18' W 123°02'0 0.0
2017-Oct-18 23:00N 49°18' W 123°02'0 0.0
2017-Oct-18 22:30N 49°18' W 123°02'0 0.0
2017-Oct-18 22:00N 49°18' W 123°02'0 0.0
2017-Oct-18 21:30N 49°18' W 123°02'0 0.0
2017-Oct-18 21:00N 49°18' W 123°02'0 0.0
2017-Oct-18 20:30N 49°18' W 123°02'0 0.0
2017-Oct-18 20:00N 49°18' W 123°02'0 0.0
2017-Oct-18 19:30N 49°18' W 123°02'0 0.0
2017-Oct-18 19:00N 49°18' W 123°02'0 0.0
2017-Oct-18 18:30N 49°18' W 123°02'0 0.0
2017-Oct-18 18:00N 49°18' W 123°02'0 0.0
2017-Oct-18 17:30N 49°18' W 123°02'0 0.0
2017-Oct-18 17:00N 49°18' W 123°02'0 0.0
2017-Oct-18 16:30N 49°18' W 123°02'0 0.0
2017-Oct-18 16:00N 49°18' W 123°02'0 0.0
2017-Oct-18 15:30N 49°18' W 123°02'0 0.0
2017-Oct-18 15:00N 49°18' W 123°02'0 0.0
2017-Oct-18 14:00N 49°18' W 123°02'0 0.0
2017-Oct-18 13:30N 49°18' W 123°02'0 0.0
2017-Oct-18 13:00N 49°18' W 123°02'0 0.0
2017-Oct-18 12:30N 49°18' W 123°02'0 0.0
2017-Oct-18 12:00N 49°18' W 123°02'0 0.0
2017-Oct-18 11:30N 49°18' W 123°02'0 0.0
2017-Oct-18 11:00N 49°18' W 123°02'0 0.0
2017-Oct-18 10:30N 49°18' W 123°02'0 0.0
2017-Oct-18 10:00N 49°18' W 123°02'0 0.0
2017-Oct-18 09:30N 49°18' W 123°02'0 0.0
2017-Oct-18 09:00N 49°18' W 123°02'0 0.0
2017-Oct-18 08:30N 49°18' W 123°02'0 0.0
2017-Oct-18 08:00N 49°18' W 123°02'0 0.0
2017-Oct-18 07:30N 49°18' W 123°02'0 0.0
2017-Oct-18 07:00N 49°18' W 123°02'0 0.0
2017-Oct-18 06:30N 49°18' W 123°02'0 0.0
2017-Oct-18 06:00N 49°18' W 123°02'0 0.0
2017-Oct-18 05:30N 49°18' W 123°02'0 0.0
2017-Oct-18 05:00N 49°18' W 123°02'0 0.0
2017-Oct-18 04:30N 49°18' W 123°02'0 0.0
2017-Oct-18 04:00N 49°18' W 123°02'0 0.0
2017-Oct-18 03:30N 49°18' W 123°02'0 0.0
2017-Oct-18 03:00N 49°18' W 123°02'0 0.0
2017-Oct-18 02:30N 49°18' W 123°02'0 0.0
2017-Oct-18 02:00N 49°18' W 123°02'0 0.0
2017-Oct-18 01:30N 49°18' W 123°02'0 0.0
2017-Oct-18 01:00N 49°18' W 123°02'0 0.0
2017-Oct-18 00:30N 49°18' W 123°02'0 0.0
2017-Oct-18 00:00N 49°18' W 123°02'0 0.0
2017-Oct-17 23:30N 49°18' W 123°02'0 0.0
2017-Oct-17 23:00N 49°18' W 123°02'0 0.0
2017-Oct-17 22:30N 49°18' W 123°02'0 0.0
2017-Oct-17 22:00N 49°18' W 123°02'0 0.0
2017-Oct-17 21:30N 49°18' W 123°02'0 0.0
2017-Oct-17 21:00N 49°18' W 123°02'0 0.0
2017-Oct-17 20:30N 49°18' W 123°02'0 0.0
2017-Oct-17 20:00N 49°18' W 123°02'0 0.0
2017-Oct-17 19:30N 49°18' W 123°02'0 0.0
2017-Oct-17 19:00N 49°18' W 123°02'0 0.0
2017-Oct-17 18:30N 49°18' W 123°02'0 0.0
2017-Oct-17 18:00N 49°18' W 123°02'0 0.0
2017-Oct-17 17:30N 49°18' W 123°02'0 0.0
2017-Oct-17 17:00N 49°18' W 123°02'0 0.0
2017-Oct-17 16:30N 49°18' W 123°02'0 0.0
2017-Oct-17 16:00N 49°18' W 123°02'0 0.0
2017-Oct-17 15:30N 49°18' W 123°02'0 0.0
2017-Oct-17 15:00N 49°18' W 123°02'0 0.0
2017-Oct-17 14:30N 49°18' W 123°02'0 0.0
2017-Oct-17 14:00N 49°18' W 123°02'0 0.0
2017-Oct-17 13:30N 49°18' W 123°02'0 0.0
2017-Oct-17 13:00N 49°18' W 123°02'1 1.0
2017-Oct-17 12:30N 49°18' W 123°01'1 1.2
2017-Oct-17 12:00N 49°18' W 123°02'0 0.0
2017-Oct-16 01:30N 49°18' W 123°02'2 4.4
2017-Oct-16 01:00N 49°17' W 123°05'1 2.5
2017-Oct-16 00:30N 49°18' W 123°06'2 3.0
2017-Oct-16 00:00N 49°17' W 123°04'2 3.1
2017-Oct-15 23:30N 49°18' W 123°06'2 4.4
2017-Oct-15 23:00N 49°18' W 123°03'2 4.9
2017-Oct-15 22:30N 49°18' W 122°59'3 6.1
2017-Oct-15 22:00N 49°18' W 122°55'1 2.3
2017-Oct-15 21:30N 49°18' W 122°53'0 0.2
2017-Oct-15 21:00N 49°18' W 122°53'0 0.0
2017-Oct-15 20:30N 49°18' W 122°53'0 0.0
2017-Oct-15 20:00N 49°18' W 122°53'0 0.0
2017-Oct-15 19:30N 49°18' W 122°53'0 0.0
2017-Oct-15 19:00N 49°18' W 122°53'0 0.0
2017-Oct-15 18:30N 49°18' W 122°53'0 0.0
2017-Oct-15 18:00N 49°18' W 122°53'0 0.0
2017-Oct-15 17:30N 49°18' W 122°53'0 0.0
2017-Oct-15 17:00N 49°18' W 122°53'0 0.0
2017-Oct-15 16:30N 49°18' W 122°53'0 0.2
2017-Oct-15 16:00N 49°18' W 122°53'1 1.4
2017-Oct-15 15:30N 49°18' W 122°54'2 3.9
2017-Oct-15 15:00N 49°18' W 122°57'5 4.8
2017-Oct-15 14:00N 49°17' W 123°04'0 0.3
2017-Oct-15 13:30N 49°17' W 123°04'2 4.7
2017-Oct-15 13:00N 49°18' W 123°01'3 6.5
2017-Oct-15 12:30N 49°18' W 122°56'2 3.8
2017-Oct-15 12:00N 49°18' W 122°53'3 5.2
2017-Oct-15 11:30N 49°18' W 122°57'3 6.2
2017-Oct-15 11:00N 49°18' W 123°02'0 0.0
2017-Oct-15 10:30N 49°18' W 123°02'0 0.0
2017-Oct-15 10:00N 49°18' W 123°02'0 0.0
2017-Oct-15 09:30N 49°18' W 123°02'0 0.0
2017-Oct-15 09:00N 49°18' W 123°02'0 0.0
2017-Oct-15 08:30N 49°18' W 123°02'0 0.0
2017-Oct-15 07:59N 49°18' W 123°02'0 0.0
2017-Oct-15 07:30N 49°18' W 123°02'0 0.0
2017-Oct-15 07:00N 49°18' W 123°02'0 0.0
2017-Oct-15 06:30N 49°18' W 123°02'0 0.0
2017-Oct-15 06:00N 49°18' W 123°02'0 0.0
2017-Oct-15 05:30N 49°18' W 123°02'0 0.0
2017-Oct-15 05:00N 49°18' W 123°02'0 0.0
2017-Oct-15 04:30N 49°18' W 123°02'0 0.0
2017-Oct-15 04:00N 49°18' W 123°02'0 0.0
2017-Oct-15 03:30N 49°18' W 123°02'0 0.0
2017-Oct-15 03:00N 49°18' W 123°02'0 0.0
2017-Oct-15 02:30N 49°18' W 123°02'4 8.2
2017-Oct-15 02:01N 49°18' W 122°56'2 3.6
2017-Oct-15 01:30N 49°18' W 122°53'1 2.1
2017-Oct-15 01:01N 49°18' W 122°54'3 5.5
2017-Oct-15 00:30N 49°18' W 122°59'0 0.5
2017-Oct-15 00:01N 49°18' W 122°59'1 2.0
2017-Oct-14 23:31N 49°18' W 123°00'1 2.2
2017-Oct-14 23:00N 49°18' W 123°02'0 0.8
2017-Oct-14 22:31N 49°18' W 123°02'0 0.0
2017-Oct-14 22:01N 49°18' W 123°02'0 0.0
2017-Oct-14 21:31N 49°18' W 123°02'0 0.0
2017-Oct-14 21:01N 49°18' W 123°02'0 0.0
2017-Oct-14 20:31N 49°18' W 123°02'0 0.0
2017-Oct-14 20:01N 49°18' W 123°02'0 0.0
2017-Oct-14 19:30N 49°18' W 123°02'0 0.0
2017-Oct-14 19:01N 49°18' W 123°02'0 0.0
2017-Oct-14 18:31N 49°18' W 123°02'0 0.0
2017-Oct-14 18:01N 49°18' W 123°02'0 0.0
2017-Oct-14 17:30N 49°18' W 123°02'0 0.0
2017-Oct-14 17:01N 49°18' W 123°02'0 0.0
2017-Oct-14 16:31N 49°18' W 123°02'0 0.0
2017-Oct-14 16:00N 49°18' W 123°02'0 0.0
2017-Oct-14 15:31N 49°18' W 123°02'0 0.0
2017-Oct-14 15:01N 49°18' W 123°02'0 0.8
2017-Oct-14 14:31N 49°18' W 123°02'0 0.8
2017-Oct-14 14:00N 49°18' W 123°02'0 0.0
2017-Oct-14 03:27N 49°18' W 123°02'0 0.2
2017-Oct-14 03:01N 49°18' W 123°02'1 1.4
2017-Oct-14 02:31N 49°18' W 123°03'1 1.4
2017-Oct-14 02:01N 49°18' W 123°02'0 0.0
2017-Oct-14 01:26N 49°18' W 123°02'0 0.0
2017-Oct-14 00:59N 49°18' W 123°02'0 0.0
2017-Oct-14 00:18N 49°18' W 123°02'0 0.0
2017-Oct-14 00:00N 49°18' W 123°02'0 0.0
2017-Oct-13 23:28N 49°18' W 123°02'0 0.0
2017-Oct-13 23:01N 49°18' W 123°02'0 0.0
2017-Oct-13 22:30N 49°18' W 123°02'0 0.0
2017-Oct-13 22:01N 49°18' W 123°02'0 0.0
2017-Oct-13 21:31N 49°18' W 123°02'0 0.0
2017-Oct-13 21:00N 49°18' W 123°02'0 0.0
2017-Oct-13 20:30N 49°18' W 123°02'0 0.0
2017-Oct-13 20:00N 49°18' W 123°02'0 0.0
2017-Oct-13 19:31N 49°18' W 123°02'0 0.0
2017-Oct-13 19:00N 49°18' W 123°02'0 0.0
2017-Oct-13 18:31N 49°18' W 123°02'0 0.0
2017-Oct-13 18:01N 49°18' W 123°02'0 0.0
2017-Oct-13 17:31N 49°18' W 123°02'0 0.0
2017-Oct-13 17:01N 49°18' W 123°02'0 0.0
2017-Oct-13 16:31N 49°18' W 123°02'0 0.0
2017-Oct-13 16:01N 49°18' W 123°02'1 1.5
2017-Oct-13 15:31N 49°18' W 123°01'3 5.5
2017-Oct-13 15:00N 49°18' W 122°56'2 4.6
2017-Oct-13 14:30N 49°18' W 122°53'0 0.2
2017-Oct-13 14:00N 49°18' W 122°53'0 0.0
2017-Oct-13 13:30N 49°18' W 122°53'0 0.0
2017-Oct-13 13:00N 49°18' W 122°53'0 0.0
2017-Oct-13 12:31N 49°18' W 122°53'0 0.0
2017-Oct-13 12:00N 49°18' W 122°53'0 0.1
2017-Oct-13 11:31N 49°18' W 122°53'0 0.1
2017-Oct-13 11:01N 49°18' W 122°53'0 0.0
2017-Oct-13 10:31N 49°18' W 122°53'0 0.0
2017-Oct-13 10:00N 49°18' W 122°53'0 0.0
2017-Oct-13 09:31N 49°18' W 122°53'0 0.0
2017-Oct-13 09:01N 49°18' W 122°53'0 0.0
2017-Oct-13 08:31N 49°18' W 122°53'0 0.1
2017-Oct-13 08:01N 49°18' W 122°53'0 0.1
2017-Oct-13 07:31N 49°18' W 122°53'0 0.2
2017-Oct-13 07:01N 49°18' W 122°53'0 0.0
2017-Oct-13 06:31N 49°18' W 122°53'2 4.2
2017-Oct-13 06:00N 49°18' W 122°56'4 7.4
2017-Oct-13 05:31N 49°18' W 123°02'0 0.1
2017-Oct-13 05:00N 49°18' W 123°02'0 0.0
2017-Oct-13 04:30N 49°18' W 123°02'0 0.0
2017-Oct-13 04:00N 49°18' W 123°02'0 0.0
2017-Oct-13 03:31N 49°18' W 123°02'0 0.0
2017-Oct-13 03:01N 49°18' W 123°02'0 0.0
2017-Oct-13 02:30N 49°18' W 123°02'0 0.0
2017-Oct-13 02:00N 49°18' W 123°02'0 0.0
2017-Oct-13 01:30N 49°18' W 123°02'0 0.0
2017-Oct-13 01:00N 49°18' W 123°02'0 0.0
2017-Oct-13 00:30N 49°18' W 123°02'0 0.1
2017-Oct-13 00:00N 49°18' W 123°02'0 0.1
2017-Oct-12 23:30N 49°18' W 123°02'0 0.0
2017-Oct-12 23:01N 49°18' W 123°02'0 0.0
2017-Oct-12 22:30N 49°18' W 123°02'0 0.0
2017-Oct-12 22:00N 49°18' W 123°02'0 0.0
2017-Oct-12 21:30N 49°18' W 123°02'0 0.0
2017-Oct-12 21:00N 49°18' W 123°02'0 0.0
2017-Oct-12 20:30N 49°18' W 123°02'0 0.0
2017-Oct-12 20:01N 49°18' W 123°02'0 0.0
2017-Oct-12 19:31N 49°18' W 123°02'0 0.0
2017-Oct-12 19:00N 49°18' W 123°02'0 0.0
2017-Oct-12 18:31N 49°18' W 123°02'  

Dump ship's entire track history